AA1106 KCLT-KFLL
Flight info
| Callsign | AA1106 |
|---|---|
| Flight time | 2h 27m |
| Altitude | 36000 |
| Route | ICONS5 NOOKS WURFL Q83 JEVED Q97 PRMUS CUUDA3 |
| Aircraft | B738/M-R/L |
Departure
| Time | 2026-05-03 21:03 |
|---|---|
| Airport | Charlotte Douglas International Airport (KCLT) |
Arrival
| Time | 2026-05-03 23:30 |
|---|---|
| Airport | Fort Lauderdale Hollywood International Airport (KFLL) |
| Time | Latitude | Longitude | Altitude | Speed | Heading |
|---|---|---|---|---|---|
| 2026-05-03 20:28 | 35.21959 | -80.94450 | 757 ft | 0 kts | 298° |
| 2026-05-03 20:36 | 35.21952 | -80.94436 | 757 ft | 4 kts | 298° |
| 2026-05-03 20:36 | 35.21942 | -80.94411 | 757 ft | 2 kts | 294° |
| 2026-05-03 20:36 | 35.21938 | -80.94394 | 757 ft | 1 kts | 273° |
| 2026-05-03 20:36 | 35.21939 | -80.94379 | 757 ft | 1 kts | 251° |
| 2026-05-03 20:37 | 35.21944 | -80.94366 | 757 ft | 1 kts | 229° |
| 2026-05-03 20:37 | 35.21954 | -80.94356 | 757 ft | 1 kts | 210° |
| 2026-05-03 20:37 | 35.21958 | -80.94353 | 757 ft | 0 kts | 208° |
| 2026-05-03 20:47 | 35.21956 | -80.94354 | 757 ft | 0 kts | 208° |
| 2026-05-03 20:48 | 35.21949 | -80.94358 | 757 ft | 1 kts | 204° |
| 2026-05-03 20:48 | 35.21925 | -80.94369 | 757 ft | 6 kts | 198° |
| 2026-05-03 20:48 | 35.21868 | -80.94371 | 757 ft | 10 kts | 167° |
| 2026-05-03 20:48 | 35.21792 | -80.94347 | 757 ft | 12 kts | 172° |
| 2026-05-03 20:49 | 35.21701 | -80.94331 | 757 ft | 12 kts | 146° |
| 2026-05-03 20:49 | 35.21675 | -80.94242 | 757 ft | 10 kts | 94° |
| 2026-05-03 20:49 | 35.21693 | -80.94174 | 757 ft | 7 kts | 53° |
| 2026-05-03 20:49 | 35.21724 | -80.94130 | 757 ft | 7 kts | 46° |
| 2026-05-03 20:50 | 35.21771 | -80.94068 | 757 ft | 13 kts | 49° |
| 2026-05-03 20:50 | 35.21807 | -80.93990 | 757 ft | 8 kts | 101° |
| 2026-05-03 20:50 | 35.21755 | -80.93915 | 757 ft | 15 kts | 137° |
| 2026-05-03 20:50 | 35.21658 | -80.93795 | 757 ft | 23 kts | 130° |
| 2026-05-03 20:51 | 35.21546 | -80.93668 | 757 ft | 18 kts | 168° |
| 2026-05-03 20:51 | 35.21430 | -80.93655 | 757 ft | 14 kts | 176° |
| 2026-05-03 20:51 | 35.21345 | -80.93649 | 757 ft | 11 kts | 176° |
| 2026-05-03 20:51 | 35.21274 | -80.93642 | 757 ft | 10 kts | 175° |
| 2026-05-03 20:52 | 35.21197 | -80.93636 | 757 ft | 12 kts | 177° |
| 2026-05-03 20:52 | 35.21097 | -80.93630 | 757 ft | 17 kts | 175° |
| 2026-05-03 20:52 | 35.20958 | -80.93615 | 757 ft | 23 kts | 175° |
| 2026-05-03 20:52 | 35.20781 | -80.93599 | 757 ft | 27 kts | 177° |
| 2026-05-03 20:53 | 35.20604 | -80.93589 | 757 ft | 23 kts | 174° |
| 2026-05-03 20:53 | 35.20459 | -80.93573 | 757 ft | 18 kts | 176° |
| 2026-05-03 20:53 | 35.20346 | -80.93564 | 757 ft | 13 kts | 176° |
| 2026-05-03 20:53 | 35.20266 | -80.93555 | 757 ft | 9 kts | 176° |
| 2026-05-03 20:54 | 35.20209 | -80.93552 | 757 ft | 6 kts | 176° |
| 2026-05-03 20:54 | 35.20123 | -80.93529 | 757 ft | 4 kts | 134° |
| 2026-05-03 20:54 | 35.20120 | -80.93525 | 757 ft | 0 kts | 127° |
| 2026-05-03 21:01 | 35.20120 | -80.93524 | 757 ft | 0 kts | 126° |
| 2026-05-03 21:01 | 35.20114 | -80.93502 | 757 ft | 5 kts | 97° |
| 2026-05-03 21:01 | 35.20127 | -80.93434 | 757 ft | 10 kts | 46° |
| 2026-05-03 21:02 | 35.20192 | -80.93417 | 757 ft | 13 kts | 357° |
| 2026-05-03 21:02 | 35.20449 | -80.93441 | 757 ft | 64 kts | 355° |
| 2026-05-03 21:02 | 35.21073 | -80.93494 | 757 ft | 114 kts | 355° |
| 2026-05-03 21:02 | 35.22027 | -80.93574 | 780 ft | 159 kts | 354° |
| 2026-05-03 21:03 | 35.23201 | -80.93677 | 1055 ft | 175 kts | 351° |
| 2026-05-03 21:03 | 35.24509 | -80.93802 | 1194 ft | 204 kts | 353° |
| 2026-05-03 21:03 | 35.26000 | -80.93821 | 1562 ft | 223 kts | 1° |
| 2026-05-03 21:03 | 35.27580 | -80.93425 | 1906 ft | 245 kts | 15° |
| 2026-05-03 21:04 | 35.29255 | -80.92790 | 2277 ft | 265 kts | 15° |
| 2026-05-03 21:04 | 35.31025 | -80.92120 | 2711 ft | 268 kts | 15° |
| 2026-05-03 21:04 | 35.32829 | -80.91440 | 3184 ft | 274 kts | 15° |
| 2026-05-03 21:04 | 35.34640 | -80.90726 | 3674 ft | 277 kts | 19° |
| 2026-05-03 21:05 | 35.36283 | -80.89441 | 4106 ft | 282 kts | 43° |
| 2026-05-03 21:05 | 35.37427 | -80.87529 | 4564 ft | 287 kts | 64° |
| 2026-05-03 21:05 | 35.37924 | -80.85184 | 5541 ft | 289 kts | 85° |
| 2026-05-03 21:05 | 35.37777 | -80.82755 | 6456 ft | 293 kts | 103° |
| 2026-05-03 21:06 | 35.37392 | -80.80298 | 7414 ft | 296 kts | 102° |
| 2026-05-03 21:06 | 35.37007 | -80.77827 | 8305 ft | 301 kts | 102° |
| 2026-05-03 21:06 | 35.36620 | -80.75305 | 9166 ft | 305 kts | 102° |
| 2026-05-03 21:06 | 35.36210 | -80.72751 | 10011 ft | 308 kts | 108° |
| 2026-05-03 21:07 | 35.35325 | -80.70431 | 10783 ft | 306 kts | 129° |
| 2026-05-03 21:07 | 35.33871 | -80.68609 | 11592 ft | 300 kts | 149° |
| 2026-05-03 21:07 | 35.32037 | -80.67507 | 12400 ft | 292 kts | 170° |
| 2026-05-03 21:07 | 35.30077 | -80.67255 | 13200 ft | 282 kts | 190° |
| 2026-05-03 21:08 | 35.28244 | -80.67847 | 13989 ft | 272 kts | 210° |
| 2026-05-03 21:08 | 35.26758 | -80.69176 | 14773 ft | 264 kts | 228° |
| 2026-05-03 21:08 | 35.25493 | -80.70750 | 15579 ft | 262 kts | 228° |
| 2026-05-03 21:08 | 35.24234 | -80.72305 | 16327 ft | 255 kts | 228° |
| 2026-05-03 21:09 | 35.22986 | -80.73836 | 16765 ft | 257 kts | 228° |
| 2026-05-03 21:09 | 35.21734 | -80.75382 | 17275 ft | 256 kts | 228° |
| 2026-05-03 21:09 | 35.20455 | -80.76980 | 17433 ft | 267 kts | 228° |
| 2026-05-03 21:09 | 35.18912 | -80.78333 | 17636 ft | 283 kts | 210° |
| 2026-05-03 21:10 | 35.16987 | -80.79062 | 17793 ft | 298 kts | 200° |
| 2026-05-03 21:10 | 35.14948 | -80.79730 | 17905 ft | 309 kts | 200° |
| 2026-05-03 21:10 | 35.12859 | -80.80425 | 18069 ft | 319 kts | 200° |
| 2026-05-03 21:10 | 35.10703 | -80.81143 | 18285 ft | 325 kts | 200° |
| 2026-05-03 21:11 | 35.08507 | -80.81875 | 18649 ft | 327 kts | 200° |
| 2026-05-03 21:11 | 35.06361 | -80.82587 | 19204 ft | 322 kts | 201° |
| 2026-05-03 21:11 | 35.04195 | -80.83310 | 19506 ft | 325 kts | 201° |
| 2026-05-03 21:11 | 35.01982 | -80.84047 | 19779 ft | 329 kts | 201° |
| 2026-05-03 21:12 | 34.99771 | -80.84782 | 20074 ft | 332 kts | 201° |
| 2026-05-03 21:12 | 34.97559 | -80.85517 | 20370 ft | 334 kts | 201° |
| 2026-05-03 21:12 | 34.95301 | -80.86267 | 20597 ft | 338 kts | 201° |
| 2026-05-03 21:12 | 34.93026 | -80.87025 | 20764 ft | 348 kts | 201° |
| 2026-05-03 21:13 | 34.90669 | -80.87808 | 20934 ft | 360 kts | 201° |
| 2026-05-03 21:13 | 34.88215 | -80.88622 | 21142 ft | 371 kts | 201° |
| 2026-05-03 21:13 | 34.85719 | -80.89449 | 21449 ft | 378 kts | 201° |
| 2026-05-03 21:13 | 34.83160 | -80.90296 | 21798 ft | 384 kts | 200° |
| 2026-05-03 21:14 | 34.80563 | -80.91155 | 22170 ft | 390 kts | 200° |
| 2026-05-03 21:14 | 34.77963 | -80.92014 | 22535 ft | 390 kts | 200° |
| 2026-05-03 21:14 | 34.75343 | -80.92880 | 22850 ft | 389 kts | 201° |
| 2026-05-03 21:14 | 34.72749 | -80.93738 | 23073 ft | 390 kts | 201° |
| 2026-05-03 21:15 | 34.70127 | -80.94604 | 23127 ft | 395 kts | 201° |
| 2026-05-03 21:15 | 34.67501 | -80.95469 | 23116 ft | 393 kts | 201° |
| 2026-05-03 21:15 | 34.64875 | -80.96335 | 23101 ft | 391 kts | 201° |
| 2026-05-03 21:15 | 34.62231 | -80.97091 | 23068 ft | 395 kts | 194° |
| 2026-05-03 21:16 | 34.59485 | -80.97450 | 23128 ft | 393 kts | 192° |
| 2026-05-03 21:16 | 34.56770 | -80.97739 | 23089 ft | 393 kts | 191° |
| 2026-05-03 21:16 | 34.54077 | -80.98002 | 23115 ft | 390 kts | 191° |
| 2026-05-03 21:16 | 34.51454 | -80.98246 | 23932 ft | 371 kts | 191° |
| 2026-05-03 21:17 | 34.48878 | -80.98495 | 24060 ft | 377 kts | 191° |
| 2026-05-03 21:17 | 34.47159 | -80.98657 | 24274 ft | 376 kts | 191° |
| 2026-05-03 21:17 | 34.43684 | -80.98986 | 24583 ft | 378 kts | 191° |
| 2026-05-03 21:17 | 34.41064 | -80.99230 | 24849 ft | 379 kts | 191° |
| 2026-05-03 21:18 | 34.38426 | -80.99477 | 25076 ft | 380 kts | 191° |
| 2026-05-03 21:18 | 34.35806 | -80.99722 | 25316 ft | 382 kts | 191° |
| 2026-05-03 21:18 | 34.33179 | -80.99969 | 25672 ft | 384 kts | 191° |
| 2026-05-03 21:18 | 34.30490 | -81.00220 | 26109 ft | 385 kts | 191° |
| 2026-05-03 21:19 | 34.27846 | -81.00467 | 26475 ft | 388 kts | 191° |
| 2026-05-03 21:19 | 34.25136 | -81.00720 | 26850 ft | 390 kts | 191° |
| 2026-05-03 21:19 | 34.22443 | -81.00970 | 27228 ft | 392 kts | 191° |
| 2026-05-03 21:19 | 34.19720 | -81.01224 | 27586 ft | 394 kts | 191° |
| 2026-05-03 21:20 | 34.17001 | -81.01478 | 27941 ft | 396 kts | 191° |
| 2026-05-03 21:20 | 34.14270 | -81.01733 | 28310 ft | 397 kts | 191° |
| 2026-05-03 21:20 | 34.11509 | -81.01990 | 28642 ft | 399 kts | 191° |
| 2026-05-03 21:20 | 34.08757 | -81.02245 | 28954 ft | 402 kts | 191° |
| 2026-05-03 21:21 | 34.05959 | -81.02505 | 29317 ft | 402 kts | 191° |
| 2026-05-03 21:21 | 34.03177 | -81.02763 | 29589 ft | 405 kts | 191° |
| 2026-05-03 21:21 | 34.00374 | -81.03023 | 29937 ft | 406 kts | 191° |
| 2026-05-03 21:21 | 33.97562 | -81.03210 | 30196 ft | 413 kts | 187° |
| 2026-05-03 21:22 | 33.94692 | -81.03188 | 30530 ft | 413 kts | 187° |
| 2026-05-03 21:22 | 33.91832 | -81.03162 | 30791 ft | 416 kts | 187° |
| 2026-05-03 21:22 | 33.88935 | -81.03136 | 31126 ft | 416 kts | 187° |
| 2026-05-03 21:22 | 33.86037 | -81.03110 | 31378 ft | 419 kts | 187° |
| 2026-05-03 21:23 | 33.83133 | -81.03083 | 31678 ft | 420 kts | 186° |
| 2026-05-03 21:23 | 33.80183 | -81.03055 | 31893 ft | 423 kts | 186° |
| 2026-05-03 21:23 | 33.77262 | -81.03027 | 32199 ft | 424 kts | 186° |
| 2026-05-03 21:23 | 33.74324 | -81.02999 | 32432 ft | 426 kts | 187° |
| 2026-05-03 21:24 | 33.71360 | -81.02972 | 32697 ft | 428 kts | 187° |
| 2026-05-03 21:24 | 33.68372 | -81.02946 | 32983 ft | 428 kts | 186° |
| 2026-05-03 21:24 | 33.65406 | -81.02918 | 33217 ft | 430 kts | 186° |
| 2026-05-03 21:24 | 33.62412 | -81.02891 | 33448 ft | 432 kts | 186° |
| 2026-05-03 21:25 | 33.59423 | -81.02862 | 33770 ft | 431 kts | 186° |
| 2026-05-03 21:25 | 33.56420 | -81.02836 | 33963 ft | 434 kts | 186° |
| 2026-05-03 21:25 | 33.53416 | -81.02807 | 34172 ft | 436 kts | 186° |
| 2026-05-03 21:25 | 33.50382 | -81.02779 | 34404 ft | 437 kts | 186° |
| 2026-05-03 21:26 | 33.47348 | -81.02751 | 34595 ft | 439 kts | 186° |
| 2026-05-03 21:26 | 33.44306 | -81.02724 | 34873 ft | 439 kts | 186° |
| 2026-05-03 21:26 | 33.41264 | -81.02696 | 35115 ft | 439 kts | 186° |
| 2026-05-03 21:26 | 33.38227 | -81.02666 | 35382 ft | 439 kts | 186° |
| 2026-05-03 21:27 | 33.35199 | -81.02638 | 35658 ft | 438 kts | 186° |
| 2026-05-03 21:27 | 33.32172 | -81.02612 | 35792 ft | 439 kts | 186° |
| 2026-05-03 21:27 | 33.29140 | -81.02583 | 35906 ft | 437 kts | 186° |
| 2026-05-03 21:27 | 33.26075 | -81.02555 | 35963 ft | 438 kts | 186° |
| 2026-05-03 21:28 | 33.23055 | -81.02527 | 36096 ft | 437 kts | 186° |
| 2026-05-03 21:28 | 33.20021 | -81.02500 | 36095 ft | 440 kts | 186° |
| 2026-05-03 21:28 | 33.13938 | -81.02443 | 36086 ft | 432 kts | 186° |
| 2026-05-03 21:29 | 33.08026 | -81.02390 | 36105 ft | 427 kts | 186° |
| 2026-05-03 21:29 | 33.02054 | -81.02341 | 36110 ft | 437 kts | 186° |
| 2026-05-03 21:30 | 32.95967 | -81.02285 | 36105 ft | 441 kts | 185° |
| 2026-05-03 21:30 | 32.89803 | -81.02225 | 36104 ft | 441 kts | 185° |
| 2026-05-03 21:31 | 32.83714 | -81.02169 | 36108 ft | 441 kts | 185° |
| 2026-05-03 21:31 | 32.77604 | -81.02113 | 36109 ft | 441 kts | 185° |
| 2026-05-03 21:32 | 32.71504 | -81.02058 | 36109 ft | 441 kts | 185° |
| 2026-05-03 21:32 | 32.65360 | -81.02003 | 36108 ft | 441 kts | 185° |
| 2026-05-03 21:33 | 32.59249 | -81.01947 | 36111 ft | 441 kts | 185° |
| 2026-05-03 21:33 | 32.53142 | -81.01898 | 36115 ft | 440 kts | 186° |
| 2026-05-03 21:34 | 32.47066 | -81.01997 | 36119 ft | 440 kts | 187° |
| 2026-05-03 21:34 | 32.40979 | -81.02104 | 36120 ft | 440 kts | 187° |
| 2026-05-03 21:35 | 32.34872 | -81.02213 | 36120 ft | 440 kts | 187° |
| 2026-05-03 21:35 | 32.28783 | -81.02321 | 36119 ft | 440 kts | 187° |
| 2026-05-03 21:36 | 32.22673 | -81.02428 | 36119 ft | 440 kts | 187° |
| 2026-05-03 21:36 | 32.16597 | -81.02536 | 36119 ft | 440 kts | 187° |
| 2026-05-03 21:37 | 32.10482 | -81.02644 | 36109 ft | 440 kts | 187° |
| 2026-05-03 21:37 | 32.04408 | -81.02751 | 36094 ft | 440 kts | 187° |
| 2026-05-03 21:38 | 31.98289 | -81.02877 | 36080 ft | 440 kts | 187° |
| 2026-05-03 21:38 | 31.92215 | -81.03041 | 36079 ft | 440 kts | 187° |
| 2026-05-03 21:39 | 31.86125 | -81.03207 | 36083 ft | 440 kts | 187° |
| 2026-05-03 21:39 | 31.80025 | -81.03374 | 36083 ft | 440 kts | 187° |
| 2026-05-03 21:40 | 31.73947 | -81.03539 | 36082 ft | 440 kts | 187° |
| 2026-05-03 21:40 | 31.67841 | -81.03706 | 36082 ft | 440 kts | 187° |
| 2026-05-03 21:41 | 31.61764 | -81.03871 | 36091 ft | 440 kts | 187° |
| 2026-05-03 21:41 | 31.55652 | -81.04152 | 36105 ft | 438 kts | 189° |
| 2026-05-03 21:42 | 31.49601 | -81.04539 | 36113 ft | 439 kts | 189° |
| 2026-05-03 21:42 | 31.43520 | -81.04930 | 36115 ft | 439 kts | 189° |
| 2026-05-03 21:43 | 31.37445 | -81.05321 | 36117 ft | 439 kts | 189° |
| 2026-05-03 21:43 | 31.31405 | -81.05709 | 36117 ft | 439 kts | 189° |
| 2026-05-03 21:44 | 31.25296 | -81.06093 | 36116 ft | 440 kts | 188° |
| 2026-05-03 21:44 | 31.19233 | -81.06235 | 36115 ft | 441 kts | 187° |
| 2026-05-03 21:45 | 31.13103 | -81.06363 | 36116 ft | 441 kts | 187° |
| 2026-05-03 21:45 | 31.07013 | -81.06489 | 36116 ft | 441 kts | 187° |
| 2026-05-03 21:46 | 31.00904 | -81.06611 | 36117 ft | 440 kts | 187° |
| 2026-05-03 21:46 | 30.94826 | -81.06732 | 36115 ft | 438 kts | 188° |
| 2026-05-03 21:47 | 30.88773 | -81.06857 | 36117 ft | 436 kts | 189° |
| 2026-05-03 21:47 | 30.82758 | -81.06987 | 36124 ft | 435 kts | 189° |
| 2026-05-03 21:48 | 30.76712 | -81.07113 | 36130 ft | 436 kts | 189° |
| 2026-05-03 21:48 | 30.70677 | -81.07237 | 36136 ft | 436 kts | 189° |
| 2026-05-03 21:49 | 30.64647 | -81.07361 | 36136 ft | 436 kts | 189° |
| 2026-05-03 21:49 | 30.58654 | -81.07646 | 36136 ft | 433 kts | 191° |
| 2026-05-03 21:50 | 30.52628 | -81.08007 | 36133 ft | 433 kts | 191° |
| 2026-05-03 21:50 | 30.46655 | -81.08366 | 36130 ft | 433 kts | 191° |
| 2026-05-03 21:51 | 30.40620 | -81.08730 | 36127 ft | 433 kts | 191° |
| 2026-05-03 21:51 | 30.34627 | -81.09090 | 36126 ft | 434 kts | 191° |
| 2026-05-03 21:52 | 30.28638 | -81.09449 | 36125 ft | 434 kts | 191° |
| 2026-05-03 21:52 | 30.22654 | -81.09808 | 36125 ft | 434 kts | 191° |
| 2026-05-03 21:53 | 30.16631 | -81.10169 | 36125 ft | 434 kts | 191° |
| 2026-05-03 21:53 | 30.10616 | -81.10528 | 36124 ft | 434 kts | 191° |
| 2026-05-03 21:54 | 30.04629 | -81.10886 | 36124 ft | 434 kts | 191° |
| 2026-05-03 21:54 | 29.98615 | -81.11244 | 36124 ft | 434 kts | 191° |
| 2026-05-03 21:55 | 29.92580 | -81.11603 | 36124 ft | 434 kts | 191° |
| 2026-05-03 21:55 | 29.86605 | -81.11959 | 36128 ft | 435 kts | 191° |
| 2026-05-03 21:56 | 29.80561 | -81.12146 | 36098 ft | 445 kts | 182° |
| 2026-05-03 21:56 | 29.77516 | -81.11367 | 36145 ft | 460 kts | 169° |
| 2026-05-03 21:56 | 29.74551 | -81.09768 | 36125 ft | 475 kts | 156° |
| 2026-05-03 21:57 | 29.68887 | -81.05966 | 36142 ft | 466 kts | 164° |
| 2026-05-03 21:57 | 29.62990 | -81.03009 | 36125 ft | 464 kts | 166° |
| 2026-05-03 21:58 | 29.57092 | -81.00121 | 36119 ft | 463 kts | 166° |
| 2026-05-03 21:58 | 29.51206 | -80.97246 | 36116 ft | 462 kts | 166° |
| 2026-05-03 21:59 | 29.45305 | -80.94367 | 36114 ft | 461 kts | 166° |
| 2026-05-03 21:59 | 29.39398 | -80.91489 | 36112 ft | 461 kts | 166° |
| 2026-05-03 22:00 | 29.33540 | -80.88639 | 36111 ft | 460 kts | 166° |
| 2026-05-03 22:00 | 29.27669 | -80.85786 | 36110 ft | 460 kts | 166° |
| 2026-05-03 22:01 | 29.21784 | -80.82930 | 36107 ft | 460 kts | 166° |
| 2026-05-03 22:01 | 29.15905 | -80.80080 | 36104 ft | 460 kts | 166° |
| 2026-05-03 22:02 | 29.10047 | -80.77243 | 36102 ft | 460 kts | 166° |
| 2026-05-03 22:02 | 29.04170 | -80.74401 | 36102 ft | 460 kts | 166° |
| 2026-05-03 22:03 | 28.98270 | -80.71551 | 36102 ft | 460 kts | 166° |
| 2026-05-03 22:03 | 28.92407 | -80.68881 | 36097 ft | 458 kts | 168° |
| 2026-05-03 22:04 | 28.86464 | -80.66219 | 36090 ft | 458 kts | 168° |
| 2026-05-03 22:04 | 28.80538 | -80.63570 | 36076 ft | 458 kts | 168° |
| 2026-05-03 22:05 | 28.74638 | -80.60935 | 36071 ft | 458 kts | 168° |
| 2026-05-03 22:05 | 28.68701 | -80.58288 | 36068 ft | 458 kts | 168° |
| 2026-05-03 22:06 | 28.62800 | -80.55795 | 36142 ft | 452 kts | 170° |
| 2026-05-03 22:06 | 28.56906 | -80.53058 | 36056 ft | 460 kts | 167° |
| 2026-05-03 22:07 | 28.51002 | -80.50414 | 36043 ft | 458 kts | 168° |
| 2026-05-03 22:07 | 28.45068 | -80.47779 | 36044 ft | 458 kts | 168° |
| 2026-05-03 22:08 | 28.39132 | -80.45148 | 36045 ft | 458 kts | 168° |
| 2026-05-03 22:08 | 28.33256 | -80.42545 | 36044 ft | 458 kts | 168° |
| 2026-05-03 22:09 | 28.27333 | -80.39927 | 36045 ft | 458 kts | 168° |
| 2026-05-03 22:10 | 28.18409 | -80.35986 | 36045 ft | 458 kts | 168° |
| 2026-05-03 22:10 | 28.12499 | -80.33379 | 36030 ft | 457 kts | 168° |
| 2026-05-03 22:11 | 28.06582 | -80.30918 | 36047 ft | 455 kts | 170° |
| 2026-05-03 22:11 | 28.00606 | -80.28578 | 36053 ft | 455 kts | 170° |
| 2026-05-03 22:12 | 27.94645 | -80.26248 | 36055 ft | 455 kts | 170° |
| 2026-05-03 22:12 | 27.88686 | -80.23923 | 36059 ft | 455 kts | 170° |
| 2026-05-03 22:13 | 27.82722 | -80.21615 | 36104 ft | 452 kts | 171° |
| 2026-05-03 22:13 | 27.76761 | -80.19347 | 36067 ft | 455 kts | 170° |
| 2026-05-03 22:14 | 27.70939 | -80.17046 | 35673 ft | 427 kts | 171° |
| 2026-05-03 22:14 | 27.68158 | -80.15952 | 34618 ft | 422 kts | 171° |
| 2026-05-03 22:14 | 27.65454 | -80.14889 | 33880 ft | 410 kts | 171° |
| 2026-05-03 22:14 | 27.62830 | -80.13856 | 33455 ft | 394 kts | 171° |
| 2026-05-03 22:15 | 27.60284 | -80.12823 | 32950 ft | 392 kts | 171° |
| 2026-05-03 22:15 | 27.57751 | -80.11781 | 32569 ft | 387 kts | 170° |
| 2026-05-03 22:15 | 27.55266 | -80.10754 | 32179 ft | 374 kts | 171° |
| 2026-05-03 22:15 | 27.52875 | -80.09766 | 31675 ft | 361 kts | 171° |
| 2026-05-03 22:16 | 27.50586 | -80.08823 | 31159 ft | 351 kts | 171° |
| 2026-05-03 22:16 | 27.48316 | -80.07890 | 30617 ft | 342 kts | 171° |
| 2026-05-03 22:16 | 27.46125 | -80.06989 | 30064 ft | 334 kts | 171° |
| 2026-05-03 22:16 | 27.43961 | -80.06100 | 29495 ft | 328 kts | 171° |
| 2026-05-03 22:17 | 27.41848 | -80.05232 | 28923 ft | 322 kts | 171° |
| 2026-05-03 22:17 | 27.39774 | -80.04381 | 28349 ft | 317 kts | 171° |
| 2026-05-03 22:17 | 27.37721 | -80.03617 | 27760 ft | 309 kts | 175° |
| 2026-05-03 22:17 | 27.35685 | -80.02996 | 27185 ft | 305 kts | 175° |
| 2026-05-03 22:18 | 27.33655 | -80.02372 | 26602 ft | 302 kts | 175° |
| 2026-05-03 22:18 | 27.31617 | -80.01753 | 26093 ft | 310 kts | 174° |
| 2026-05-03 22:18 | 27.29525 | -80.01114 | 25639 ft | 316 kts | 174° |
| 2026-05-03 22:18 | 27.27356 | -80.00452 | 25321 ft | 326 kts | 173° |
| 2026-05-03 22:19 | 27.25156 | -79.99738 | 25103 ft | 336 kts | 170° |
| 2026-05-03 22:19 | 27.22911 | -79.98929 | 24945 ft | 344 kts | 170° |
| 2026-05-03 22:19 | 27.20605 | -79.98099 | 24870 ft | 359 kts | 169° |
| 2026-05-03 22:19 | 27.18173 | -79.97220 | 24763 ft | 367 kts | 169° |
| 2026-05-03 22:20 | 27.15751 | -79.96345 | 24681 ft | 374 kts | 169° |
| 2026-05-03 22:20 | 27.13265 | -79.95446 | 24622 ft | 379 kts | 169° |
| 2026-05-03 22:20 | 27.10742 | -79.94534 | 24263 ft | 378 kts | 169° |
| 2026-05-03 22:20 | 27.08300 | -79.93654 | 23510 ft | 367 kts | 169° |
| 2026-05-03 22:21 | 27.05915 | -79.92739 | 22836 ft | 357 kts | 167° |
| 2026-05-03 22:21 | 27.03629 | -79.91819 | 22205 ft | 346 kts | 167° |
| 2026-05-03 22:21 | 27.01432 | -79.90936 | 21629 ft | 335 kts | 166° |
| 2026-05-03 22:21 | 26.99264 | -79.90063 | 21032 ft | 326 kts | 166° |
| 2026-05-03 22:22 | 26.97175 | -79.89223 | 20435 ft | 319 kts | 165° |
| 2026-05-03 22:22 | 26.95115 | -79.88393 | 19833 ft | 312 kts | 165° |
| 2026-05-03 22:22 | 26.93094 | -79.87579 | 19227 ft | 307 kts | 164° |
| 2026-05-03 22:22 | 26.91119 | -79.86783 | 18630 ft | 302 kts | 163° |
| 2026-05-03 22:23 | 26.89156 | -79.85992 | 18027 ft | 298 kts | 163° |
| 2026-05-03 22:23 | 26.87220 | -79.85213 | 17430 ft | 293 kts | 163° |
| 2026-05-03 22:23 | 26.85333 | -79.84450 | 16839 ft | 290 kts | 162° |
| 2026-05-03 22:23 | 26.83468 | -79.83699 | 16256 ft | 287 kts | 162° |
| 2026-05-03 22:24 | 26.81557 | -79.82931 | 15743 ft | 306 kts | 162° |
| 2026-05-03 22:24 | 26.79492 | -79.82101 | 15470 ft | 323 kts | 162° |
| 2026-05-03 22:24 | 26.77313 | -79.81224 | 15304 ft | 336 kts | 162° |
| 2026-05-03 22:24 | 26.75103 | -79.80334 | 15056 ft | 342 kts | 161° |
| 2026-05-03 22:25 | 26.72858 | -79.79443 | 14610 ft | 346 kts | 164° |
| 2026-05-03 22:25 | 26.70483 | -79.79029 | 13932 ft | 341 kts | 181° |
| 2026-05-03 22:25 | 26.68223 | -79.79368 | 13307 ft | 325 kts | 194° |
| 2026-05-03 22:25 | 26.66073 | -79.80045 | 12665 ft | 314 kts | 198° |
| 2026-05-03 22:26 | 26.64041 | -79.80793 | 12026 ft | 309 kts | 199° |
| 2026-05-03 22:26 | 26.62025 | -79.81578 | 11404 ft | 307 kts | 200° |
| 2026-05-03 22:26 | 26.60030 | -79.82374 | 10984 ft | 299 kts | 200° |
| 2026-05-03 22:26 | 26.58128 | -79.83141 | 10990 ft | 290 kts | 201° |
| 2026-05-03 22:27 | 26.56244 | -79.83906 | 11010 ft | 294 kts | 201° |
| 2026-05-03 22:27 | 26.54300 | -79.84776 | 10833 ft | 302 kts | 204° |
| 2026-05-03 22:27 | 26.52374 | -79.85677 | 10461 ft | 303 kts | 204° |
| 2026-05-03 22:27 | 26.50451 | -79.86578 | 10105 ft | 299 kts | 204° |
| 2026-05-03 22:28 | 26.48564 | -79.87463 | 9718 ft | 289 kts | 204° |
| 2026-05-03 22:28 | 26.46751 | -79.88315 | 9332 ft | 281 kts | 204° |
| 2026-05-03 22:28 | 26.44967 | -79.89153 | 8926 ft | 274 kts | 204° |
| 2026-05-03 22:28 | 26.43240 | -79.89964 | 8523 ft | 270 kts | 204° |
| 2026-05-03 22:29 | 26.41529 | -79.90767 | 8143 ft | 268 kts | 204° |
| 2026-05-03 22:29 | 26.39832 | -79.91563 | 7971 ft | 259 kts | 204° |
| 2026-05-03 22:29 | 26.38203 | -79.92385 | 7987 ft | 255 kts | 210° |
| 2026-05-03 22:29 | 26.36645 | -79.93360 | 8022 ft | 258 kts | 211° |
| 2026-05-03 22:30 | 26.35079 | -79.94360 | 7983 ft | 259 kts | 211° |
| 2026-05-03 22:30 | 26.33510 | -79.95367 | 8006 ft | 263 kts | 211° |
| 2026-05-03 22:30 | 26.31916 | -79.96390 | 8035 ft | 270 kts | 211° |
| 2026-05-03 22:30 | 26.30261 | -79.97452 | 8025 ft | 276 kts | 211° |
| 2026-05-03 22:31 | 26.28588 | -79.98526 | 8030 ft | 281 kts | 211° |
| 2026-05-03 22:31 | 26.26899 | -79.99609 | 7992 ft | 275 kts | 211° |
| 2026-05-03 22:31 | 26.25267 | -80.00658 | 7981 ft | 270 kts | 211° |
| 2026-05-03 22:31 | 26.23647 | -80.01699 | 7976 ft | 268 kts | 211° |
| 2026-05-03 22:32 | 26.22020 | -80.02745 | 7978 ft | 266 kts | 211° |
| 2026-05-03 22:32 | 26.20430 | -80.03766 | 7978 ft | 264 kts | 211° |
| 2026-05-03 22:32 | 26.18933 | -80.04923 | 7963 ft | 262 kts | 223° |
| 2026-05-03 22:32 | 26.17800 | -80.06467 | 7971 ft | 261 kts | 243° |
| 2026-05-03 22:33 | 26.17128 | -80.08367 | 7992 ft | 263 kts | 252° |
| 2026-05-03 22:33 | 26.16531 | -80.10317 | 7983 ft | 267 kts | 252° |
| 2026-05-03 22:33 | 26.15935 | -80.12287 | 7982 ft | 270 kts | 252° |
| 2026-05-03 22:33 | 26.15340 | -80.14275 | 7976 ft | 271 kts | 255° |
| 2026-05-03 22:34 | 26.15073 | -80.16342 | 7980 ft | 267 kts | 268° |
| 2026-05-03 22:34 | 26.15040 | -80.18393 | 7973 ft | 266 kts | 270° |
| 2026-05-03 22:34 | 26.15042 | -80.20425 | 7961 ft | 258 kts | 271° |
| 2026-05-03 22:34 | 26.15050 | -80.22393 | 7979 ft | 247 kts | 271° |
| 2026-05-03 22:35 | 26.15058 | -80.24262 | 7952 ft | 236 kts | 271° |
| 2026-05-03 22:35 | 26.15065 | -80.26057 | 7952 ft | 228 kts | 271° |
| 2026-05-03 22:35 | 26.15073 | -80.27828 | 7967 ft | 229 kts | 271° |
| 2026-05-03 22:35 | 26.15080 | -80.29610 | 7978 ft | 233 kts | 271° |
| 2026-05-03 22:36 | 26.15088 | -80.31430 | 7977 ft | 236 kts | 271° |
| 2026-05-03 22:36 | 26.15095 | -80.33244 | 7976 ft | 237 kts | 271° |
| 2026-05-03 22:36 | 26.15088 | -80.35085 | 7967 ft | 233 kts | 270° |
| 2026-05-03 22:36 | 26.15064 | -80.36890 | 7975 ft | 234 kts | 270° |
| 2026-05-03 22:37 | 26.15040 | -80.38710 | 7976 ft | 237 kts | 270° |
| 2026-05-03 22:37 | 26.15016 | -80.40540 | 7969 ft | 235 kts | 270° |
| 2026-05-03 22:37 | 26.14992 | -80.42338 | 7802 ft | 232 kts | 270° |
| 2026-05-03 22:37 | 26.14969 | -80.44133 | 7380 ft | 232 kts | 270° |
| 2026-05-03 22:38 | 26.14947 | -80.45915 | 7005 ft | 231 kts | 270° |
| 2026-05-03 22:38 | 26.14924 | -80.47697 | 6638 ft | 232 kts | 270° |
| 2026-05-03 22:38 | 26.14902 | -80.49483 | 6263 ft | 231 kts | 270° |
| 2026-05-03 22:38 | 26.14880 | -80.51266 | 5889 ft | 230 kts | 271° |
| 2026-05-03 22:39 | 26.14859 | -80.53053 | 5513 ft | 230 kts | 271° |
| 2026-05-03 22:39 | 26.14838 | -80.54827 | 5140 ft | 230 kts | 271° |
| 2026-05-03 22:39 | 26.14817 | -80.56571 | 4988 ft | 227 kts | 271° |
| 2026-05-03 22:39 | 26.14798 | -80.58348 | 4973 ft | 228 kts | 271° |
| 2026-05-03 22:40 | 26.14778 | -80.60116 | 4972 ft | 227 kts | 271° |
| 2026-05-03 22:40 | 26.14759 | -80.61860 | 4972 ft | 227 kts | 271° |
| 2026-05-03 22:40 | 26.14740 | -80.63634 | 4972 ft | 226 kts | 271° |
| 2026-05-03 22:40 | 26.14722 | -80.65389 | 4975 ft | 228 kts | 270° |
| 2026-05-03 22:41 | 26.14703 | -80.67163 | 4975 ft | 229 kts | 270° |
| 2026-05-03 22:41 | 26.14685 | -80.68942 | 4975 ft | 231 kts | 270° |
| 2026-05-03 22:41 | 26.14667 | -80.70720 | 4967 ft | 228 kts | 270° |
| 2026-05-03 22:41 | 26.14650 | -80.72462 | 4972 ft | 228 kts | 270° |
| 2026-05-03 22:42 | 26.14632 | -80.74223 | 4971 ft | 227 kts | 271° |
| 2026-05-03 22:42 | 26.14615 | -80.75980 | 4972 ft | 227 kts | 271° |
| 2026-05-03 22:42 | 26.14556 | -80.77753 | 4959 ft | 228 kts | 261° |
| 2026-05-03 22:42 | 26.13947 | -80.79364 | 4958 ft | 229 kts | 234° |
| 2026-05-03 22:43 | 26.12770 | -80.80531 | 4964 ft | 230 kts | 209° |
| 2026-05-03 22:43 | 26.11238 | -80.81072 | 4981 ft | 233 kts | 187° |
| 2026-05-03 22:43 | 26.09632 | -80.81039 | 4977 ft | 235 kts | 169° |
| 2026-05-03 22:43 | 26.08092 | -80.80447 | 4973 ft | 233 kts | 152° |
| 2026-05-03 22:44 | 26.06544 | -80.79884 | 4968 ft | 233 kts | 171° |
| 2026-05-03 22:44 | 26.04944 | -80.79877 | 4979 ft | 232 kts | 183° |
| 2026-05-03 22:44 | 26.03334 | -80.79999 | 4971 ft | 231 kts | 183° |
| 2026-05-03 22:44 | 26.01744 | -80.80124 | 4972 ft | 231 kts | 183° |
| 2026-05-03 22:45 | 26.00126 | -80.80251 | 4972 ft | 230 kts | 183° |
| 2026-05-03 22:45 | 25.98531 | -80.80377 | 4971 ft | 229 kts | 183° |
| 2026-05-03 22:45 | 25.96967 | -80.80500 | 4984 ft | 224 kts | 183° |
| 2026-05-03 22:45 | 25.95425 | -80.80614 | 4959 ft | 219 kts | 183° |
| 2026-05-03 22:46 | 25.93934 | -80.80742 | 4959 ft | 214 kts | 188° |
| 2026-05-03 22:46 | 25.92563 | -80.81310 | 4955 ft | 217 kts | 213° |
| 2026-05-03 22:46 | 25.91513 | -80.82555 | 4978 ft | 225 kts | 238° |
| 2026-05-03 22:46 | 25.91047 | -80.84204 | 4977 ft | 228 kts | 264° |
| 2026-05-03 22:47 | 25.91264 | -80.85953 | 4974 ft | 231 kts | 289° |
| 2026-05-03 22:47 | 25.92136 | -80.87449 | 4974 ft | 234 kts | 315° |
| 2026-05-03 22:47 | 25.93517 | -80.88413 | 4986 ft | 231 kts | 342° |
| 2026-05-03 22:47 | 25.95050 | -80.88731 | 4970 ft | 221 kts | 353° |
| 2026-05-03 22:48 | 25.96543 | -80.88936 | 4975 ft | 218 kts | 354° |
| 2026-05-03 22:48 | 25.98062 | -80.89140 | 4978 ft | 222 kts | 354° |
| 2026-05-03 22:48 | 25.99591 | -80.89344 | 4967 ft | 220 kts | 354° |
| 2026-05-03 22:48 | 26.01111 | -80.89547 | 4977 ft | 221 kts | 354° |
| 2026-05-03 22:49 | 26.02646 | -80.89752 | 4971 ft | 221 kts | 354° |
| 2026-05-03 22:49 | 26.04160 | -80.89955 | 4975 ft | 221 kts | 354° |
| 2026-05-03 22:49 | 26.05683 | -80.90159 | 4971 ft | 220 kts | 354° |
| 2026-05-03 22:49 | 26.07196 | -80.90361 | 4971 ft | 219 kts | 354° |
| 2026-05-03 22:50 | 26.08718 | -80.90564 | 4975 ft | 219 kts | 354° |
| 2026-05-03 22:50 | 26.10232 | -80.90509 | 4974 ft | 218 kts | 1° |
| 2026-05-03 22:50 | 26.11742 | -80.90371 | 4946 ft | 220 kts | 18° |
| 2026-05-03 22:50 | 26.13069 | -80.89575 | 4981 ft | 219 kts | 33° |
| 2026-05-03 22:51 | 26.14347 | -80.88643 | 4973 ft | 221 kts | 34° |
| 2026-05-03 22:51 | 26.15628 | -80.87704 | 4989 ft | 221 kts | 33° |
| 2026-05-03 22:51 | 26.16901 | -80.86738 | 4988 ft | 223 kts | 34° |
| 2026-05-03 22:51 | 26.18194 | -80.85749 | 4989 ft | 223 kts | 34° |
| 2026-05-03 22:52 | 26.19451 | -80.84780 | 4979 ft | 222 kts | 34° |
| 2026-05-03 22:52 | 26.20713 | -80.83800 | 4971 ft | 221 kts | 34° |
| 2026-05-03 22:52 | 26.21991 | -80.82803 | 4977 ft | 224 kts | 34° |
| 2026-05-03 22:52 | 26.23254 | -80.81812 | 4981 ft | 225 kts | 34° |
| 2026-05-03 22:53 | 26.24551 | -80.80791 | 4985 ft | 227 kts | 34° |
| 2026-05-03 22:53 | 26.25839 | -80.79778 | 4990 ft | 228 kts | 34° |
| 2026-05-03 22:53 | 26.27133 | -80.78759 | 4984 ft | 228 kts | 34° |
| 2026-05-03 22:53 | 26.28421 | -80.77745 | 4971 ft | 226 kts | 34° |
| 2026-05-03 22:54 | 26.29696 | -80.76742 | 4970 ft | 225 kts | 34° |
| 2026-05-03 22:54 | 26.30943 | -80.75702 | 4958 ft | 224 kts | 43° |
| 2026-05-03 22:54 | 26.32013 | -80.74438 | 4980 ft | 222 kts | 45° |
| 2026-05-03 22:54 | 26.33056 | -80.73192 | 4974 ft | 222 kts | 45° |
| 2026-05-03 22:55 | 26.34119 | -80.71921 | 4977 ft | 226 kts | 45° |
| 2026-05-03 22:55 | 26.35192 | -80.70638 | 4985 ft | 227 kts | 45° |
| 2026-05-03 22:55 | 26.36285 | -80.69334 | 4974 ft | 227 kts | 45° |
| 2026-05-03 22:55 | 26.37360 | -80.68050 | 4973 ft | 227 kts | 45° |
| 2026-05-03 22:56 | 26.38436 | -80.66766 | 4972 ft | 226 kts | 45° |
| 2026-05-03 22:56 | 26.39488 | -80.65474 | 4964 ft | 226 kts | 52° |
| 2026-05-03 22:56 | 26.40101 | -80.63878 | 4976 ft | 227 kts | 78° |
| 2026-05-03 22:56 | 26.40098 | -80.62114 | 4994 ft | 230 kts | 93° |
| 2026-05-03 22:57 | 26.39963 | -80.60329 | 4986 ft | 233 kts | 93° |
| 2026-05-03 22:57 | 26.39823 | -80.58504 | 4993 ft | 235 kts | 93° |
| 2026-05-03 22:57 | 26.39685 | -80.56719 | 4975 ft | 231 kts | 93° |
| 2026-05-03 22:57 | 26.39546 | -80.54940 | 4974 ft | 227 kts | 93° |
| 2026-05-03 22:58 | 26.39409 | -80.53191 | 4977 ft | 226 kts | 93° |
| 2026-05-03 22:58 | 26.39271 | -80.51449 | 4987 ft | 229 kts | 93° |
| 2026-05-03 22:58 | 26.39131 | -80.49656 | 4990 ft | 234 kts | 93° |
| 2026-05-03 22:58 | 26.38990 | -80.47847 | 4993 ft | 234 kts | 93° |
| 2026-05-03 22:59 | 26.38848 | -80.46037 | 4985 ft | 233 kts | 93° |
| 2026-05-03 22:59 | 26.38705 | -80.44222 | 4984 ft | 233 kts | 93° |
| 2026-05-03 22:59 | 26.38565 | -80.42440 | 4986 ft | 232 kts | 93° |
| 2026-05-03 22:59 | 26.38423 | -80.40646 | 4994 ft | 231 kts | 93° |
| 2026-05-03 23:00 | 26.38282 | -80.38862 | 4982 ft | 231 kts | 93° |
| 2026-05-03 23:00 | 26.38141 | -80.37089 | 4991 ft | 230 kts | 93° |
| 2026-05-03 23:00 | 26.38002 | -80.35323 | 4989 ft | 230 kts | 93° |
| 2026-05-03 23:00 | 26.37861 | -80.33529 | 4987 ft | 230 kts | 93° |
| 2026-05-03 23:01 | 26.37723 | -80.31768 | 4988 ft | 229 kts | 93° |
| 2026-05-03 23:01 | 26.37585 | -80.30003 | 4988 ft | 229 kts | 93° |
| 2026-05-03 23:01 | 26.37447 | -80.28235 | 4988 ft | 229 kts | 93° |
| 2026-05-03 23:01 | 26.37308 | -80.26447 | 4988 ft | 229 kts | 93° |
| 2026-05-03 23:02 | 26.37171 | -80.24686 | 4988 ft | 228 kts | 93° |
| 2026-05-03 23:02 | 26.37035 | -80.22932 | 4988 ft | 228 kts | 93° |
| 2026-05-03 23:02 | 26.36898 | -80.21154 | 4988 ft | 228 kts | 93° |
| 2026-05-03 23:02 | 26.36764 | -80.19412 | 4988 ft | 228 kts | 93° |
| 2026-05-03 23:03 | 26.36628 | -80.17625 | 4988 ft | 228 kts | 93° |
| 2026-05-03 23:03 | 26.36494 | -80.15863 | 4989 ft | 228 kts | 93° |
| 2026-05-03 23:03 | 26.36361 | -80.14115 | 4989 ft | 229 kts | 93° |
| 2026-05-03 23:03 | 26.36226 | -80.12327 | 4989 ft | 230 kts | 93° |
| 2026-05-03 23:04 | 26.36092 | -80.10547 | 4989 ft | 230 kts | 93° |
| 2026-05-03 23:04 | 26.35960 | -80.08785 | 4989 ft | 230 kts | 93° |
| 2026-05-03 23:04 | 26.35826 | -80.06995 | 4989 ft | 231 kts | 93° |
| 2026-05-03 23:04 | 26.35693 | -80.05213 | 4989 ft | 231 kts | 93° |
| 2026-05-03 23:05 | 26.35353 | -80.03469 | 4967 ft | 234 kts | 114° |
| 2026-05-03 23:05 | 26.34372 | -80.02031 | 4988 ft | 234 kts | 139° |
| 2026-05-03 23:05 | 26.32935 | -80.01186 | 4978 ft | 234 kts | 165° |
| 2026-05-03 23:05 | 26.31337 | -80.00908 | 5005 ft | 234 kts | 173° |
| 2026-05-03 23:06 | 26.29714 | -80.00676 | 4988 ft | 236 kts | 173° |
| 2026-05-03 23:06 | 26.28083 | -80.00443 | 4983 ft | 235 kts | 173° |
| 2026-05-03 23:06 | 26.26481 | -80.00214 | 4980 ft | 232 kts | 173° |
| 2026-05-03 23:06 | 26.24880 | -79.99985 | 4979 ft | 230 kts | 173° |
| 2026-05-03 23:07 | 26.23305 | -79.99758 | 4980 ft | 229 kts | 173° |
| 2026-05-03 23:07 | 26.21743 | -79.99533 | 4979 ft | 229 kts | 173° |
| 2026-05-03 23:07 | 26.20159 | -79.99305 | 4984 ft | 232 kts | 173° |
| 2026-05-03 23:07 | 26.18545 | -79.99073 | 4982 ft | 235 kts | 173° |
| 2026-05-03 23:08 | 26.16928 | -79.98840 | 4972 ft | 234 kts | 173° |
| 2026-05-03 23:08 | 26.15309 | -79.98606 | 4970 ft | 232 kts | 173° |
| 2026-05-03 23:08 | 26.13706 | -79.98375 | 4970 ft | 232 kts | 173° |
| 2026-05-03 23:08 | 26.12112 | -79.98145 | 4968 ft | 231 kts | 173° |
| 2026-05-03 23:09 | 26.10516 | -79.97915 | 4967 ft | 231 kts | 173° |
| 2026-05-03 23:09 | 26.08921 | -79.97684 | 4965 ft | 231 kts | 173° |
| 2026-05-03 23:09 | 26.07323 | -79.97575 | 4943 ft | 230 kts | 188° |
| 2026-05-03 23:09 | 26.05849 | -79.98171 | 4959 ft | 230 kts | 214° |
| 2026-05-03 23:10 | 26.04727 | -79.99438 | 4972 ft | 231 kts | 239° |
| 2026-05-03 23:10 | 26.03943 | -80.01019 | 4981 ft | 234 kts | 243° |
| 2026-05-03 23:10 | 26.03175 | -80.02615 | 4986 ft | 238 kts | 243° |
| 2026-05-03 23:10 | 26.02392 | -80.04242 | 4961 ft | 234 kts | 243° |
| 2026-05-03 23:11 | 26.01640 | -80.05805 | 4961 ft | 230 kts | 243° |
| 2026-05-03 23:11 | 26.00889 | -80.07365 | 4959 ft | 225 kts | 243° |
| 2026-05-03 23:11 | 26.00152 | -80.08896 | 4959 ft | 221 kts | 243° |
| 2026-05-03 23:11 | 25.99430 | -80.10397 | 4968 ft | 221 kts | 243° |
| 2026-05-03 23:12 | 25.98703 | -80.11909 | 4973 ft | 225 kts | 243° |
| 2026-05-03 23:12 | 25.97959 | -80.13460 | 4972 ft | 227 kts | 243° |
| 2026-05-03 23:12 | 25.97216 | -80.15011 | 4972 ft | 229 kts | 243° |
| 2026-05-03 23:12 | 25.96672 | -80.16672 | 4951 ft | 225 kts | 264° |
| 2026-05-03 23:13 | 25.96571 | -80.18366 | 4813 ft | 221 kts | 268° |
| 2026-05-03 23:13 | 25.96487 | -80.20088 | 4619 ft | 222 kts | 268° |
| 2026-05-03 23:13 | 25.96404 | -80.21819 | 4420 ft | 223 kts | 268° |
| 2026-05-03 23:13 | 25.96322 | -80.23525 | 4225 ft | 223 kts | 268° |
| 2026-05-03 23:14 | 25.96239 | -80.25247 | 4027 ft | 223 kts | 268° |
| 2026-05-03 23:14 | 25.96154 | -80.26991 | 3825 ft | 223 kts | 268° |
| 2026-05-03 23:14 | 25.96071 | -80.28690 | 3628 ft | 222 kts | 268° |
| 2026-05-03 23:14 | 25.95987 | -80.30421 | 3428 ft | 222 kts | 268° |
| 2026-05-03 23:15 | 25.95903 | -80.32134 | 3229 ft | 222 kts | 268° |
| 2026-05-03 23:15 | 25.95819 | -80.33828 | 3034 ft | 221 kts | 268° |
| 2026-05-03 23:15 | 25.95736 | -80.35520 | 2981 ft | 216 kts | 268° |
| 2026-05-03 23:15 | 25.95653 | -80.37172 | 2969 ft | 212 kts | 268° |
| 2026-05-03 23:16 | 25.95571 | -80.38819 | 2970 ft | 211 kts | 268° |
| 2026-05-03 23:16 | 25.95490 | -80.40449 | 2978 ft | 213 kts | 268° |
| 2026-05-03 23:16 | 25.95409 | -80.42104 | 2979 ft | 218 kts | 268° |
| 2026-05-03 23:16 | 25.95326 | -80.43777 | 2973 ft | 218 kts | 268° |
| 2026-05-03 23:17 | 25.95241 | -80.45472 | 2973 ft | 218 kts | 268° |
| 2026-05-03 23:17 | 25.95156 | -80.47164 | 2973 ft | 219 kts | 268° |
| 2026-05-03 23:17 | 25.95072 | -80.48840 | 2972 ft | 219 kts | 268° |
| 2026-05-03 23:17 | 25.94987 | -80.50532 | 2973 ft | 219 kts | 268° |
| 2026-05-03 23:18 | 25.94901 | -80.52226 | 2973 ft | 219 kts | 268° |
| 2026-05-03 23:18 | 25.94815 | -80.53923 | 2973 ft | 219 kts | 269° |
| 2026-05-03 23:18 | 25.94730 | -80.55619 | 2973 ft | 219 kts | 269° |
| 2026-05-03 23:18 | 25.94646 | -80.57294 | 2973 ft | 220 kts | 269° |
| 2026-05-03 23:19 | 25.94561 | -80.58991 | 2973 ft | 220 kts | 269° |
| 2026-05-03 23:19 | 25.94477 | -80.60697 | 2973 ft | 220 kts | 269° |
| 2026-05-03 23:19 | 25.94393 | -80.62408 | 2973 ft | 221 kts | 269° |
| 2026-05-03 23:19 | 25.94491 | -80.64089 | 2946 ft | 219 kts | 289° |
| 2026-05-03 23:20 | 25.95241 | -80.65533 | 2966 ft | 215 kts | 315° |
| 2026-05-03 23:20 | 25.96455 | -80.66415 | 2966 ft | 212 kts | 342° |
| 2026-05-03 23:20 | 25.97911 | -80.66577 | 2965 ft | 210 kts | 9° |
| 2026-05-03 23:20 | 25.99255 | -80.65970 | 2964 ft | 210 kts | 36° |
| 2026-05-03 23:21 | 26.00191 | -80.64736 | 2974 ft | 215 kts | 62° |
| 2026-05-03 23:21 | 26.00586 | -80.63112 | 2985 ft | 219 kts | 75° |
| 2026-05-03 23:21 | 26.01283 | -80.61629 | 2978 ft | 218 kts | 47° |
| 2026-05-03 23:21 | 26.02506 | -80.60663 | 2973 ft | 218 kts | 20° |
| 2026-05-03 23:22 | 26.05506 | -80.60226 | 2985 ft | 220 kts | 4° |
| 2026-05-03 23:22 | 26.07034 | -80.60094 | 2990 ft | 222 kts | 4° |
| 2026-05-03 23:22 | 26.08554 | -80.59815 | 2960 ft | 225 kts | 20° |
| 2026-05-03 23:23 | 26.09808 | -80.58865 | 2956 ft | 214 kts | 47° |
| 2026-05-03 23:23 | 26.10508 | -80.57429 | 2956 ft | 214 kts | 74° |
| 2026-05-03 23:23 | 26.10575 | -80.55776 | 2988 ft | 216 kts | 93° |
| 2026-05-03 23:23 | 26.10436 | -80.54084 | 2977 ft | 220 kts | 94° |
| 2026-05-03 23:24 | 26.10253 | -80.52407 | 2962 ft | 221 kts | 103° |
| 2026-05-03 23:24 | 26.09611 | -80.50885 | 2977 ft | 210 kts | 118° |
| 2026-05-03 23:24 | 26.08920 | -80.49508 | 2971 ft | 196 kts | 118° |
| 2026-05-03 23:24 | 26.08270 | -80.48219 | 2955 ft | 191 kts | 118° |
| 2026-05-03 23:25 | 26.07611 | -80.46907 | 2974 ft | 194 kts | 118° |
| 2026-05-03 23:25 | 26.06945 | -80.45588 | 2975 ft | 196 kts | 118° |
| 2026-05-03 23:25 | 26.06500 | -80.44176 | 2964 ft | 193 kts | 92° |
| 2026-05-03 23:25 | 26.06567 | -80.42720 | 2979 ft | 189 kts | 84° |
| 2026-05-03 23:26 | 26.06636 | -80.41246 | 2988 ft | 193 kts | 86° |
| 2026-05-03 23:26 | 26.06675 | -80.39739 | 2980 ft | 194 kts | 87° |
| 2026-05-03 23:26 | 26.06694 | -80.38251 | 2974 ft | 192 kts | 87° |
| 2026-05-03 23:26 | 26.06701 | -80.36749 | 2978 ft | 195 kts | 88° |
| 2026-05-03 23:27 | 26.06701 | -80.35240 | 2985 ft | 197 kts | 88° |
| 2026-05-03 23:27 | 26.06690 | -80.33707 | 2984 ft | 199 kts | 89° |
| 2026-05-03 23:27 | 26.06679 | -80.32154 | 2886 ft | 206 kts | 89° |
| 2026-05-03 23:27 | 26.06669 | -80.30576 | 2634 ft | 203 kts | 89° |
| 2026-05-03 23:28 | 26.06660 | -80.29028 | 2361 ft | 196 kts | 89° |
| 2026-05-03 23:28 | 26.06652 | -80.27528 | 2092 ft | 192 kts | 88° |
| 2026-05-03 23:28 | 26.06645 | -80.26055 | 1837 ft | 189 kts | 88° |
| 2026-05-03 23:28 | 26.06638 | -80.24605 | 1587 ft | 187 kts | 88° |
| 2026-05-03 23:29 | 26.06630 | -80.23177 | 1338 ft | 182 kts | 88° |
| 2026-05-03 23:29 | 26.06622 | -80.21786 | 1090 ft | 178 kts | 88° |
| 2026-05-03 23:29 | 26.06615 | -80.20431 | 859 ft | 173 kts | 88° |
| 2026-05-03 23:29 | 26.06607 | -80.19099 | 624 ft | 168 kts | 88° |
| 2026-05-03 23:30 | 26.06600 | -80.17805 | 398 ft | 167 kts | 88° |
| 2026-05-03 23:30 | 26.06592 | -80.16539 | 186 ft | 162 kts | 88° |
| 2026-05-03 23:30 | 26.06584 | -80.15317 | 13 ft | 150 kts | 88° |
| 2026-05-03 23:30 | 26.06579 | -80.14416 | 12 ft | 49 kts | 91° |
| 2026-05-03 23:31 | 26.06620 | -80.14243 | 12 ft | 21 kts | 37° |
| 2026-05-03 23:31 | 26.06691 | -80.14314 | 12 ft | 19 kts | 271° |
| 2026-05-03 23:31 | 26.06693 | -80.14475 | 12 ft | 22 kts | 268° |
| 2026-05-03 23:31 | 26.06690 | -80.14611 | 11 ft | 15 kts | 269° |
| 2026-05-03 23:32 | 26.06690 | -80.14744 | 12 ft | 18 kts | 271° |
| 2026-05-03 23:32 | 26.06693 | -80.14861 | 11 ft | 3 kts | 271° |
| 2026-05-03 23:32 | 26.06693 | -80.14867 | 11 ft | 0 kts | 271° |
| 2026-05-03 23:32 | 26.06693 | -80.14869 | 11 ft | 1 kts | 271° |
| 2026-05-03 23:33 | 26.06694 | -80.14887 | 11 ft | 2 kts | 272° |
| 2026-05-03 23:33 | 26.06694 | -80.14925 | 12 ft | 9 kts | 269° |
| 2026-05-03 23:33 | 26.06693 | -80.14990 | 12 ft | 5 kts | 270° |
| 2026-05-03 23:33 | 26.06693 | -80.15005 | 12 ft | 0 kts | 271° |
| 2026-05-03 23:34 | 26.06693 | -80.15007 | 12 ft | 1 kts | 271° |
| 2026-05-03 23:35 | 26.06693 | -80.15045 | 12 ft | 8 kts | 270° |
| 2026-05-03 23:35 | 26.06711 | -80.15127 | 12 ft | 11 kts | 331° |
| 2026-05-03 23:35 | 26.06816 | -80.15129 | 12 ft | 18 kts | 359° |
| 2026-05-03 23:35 | 26.06939 | -80.15130 | 12 ft | 15 kts | 0° |
| 2026-05-03 23:36 | 26.06977 | -80.15130 | 12 ft | 0 kts | 1° |
| 2026-05-03 23:36 | 26.06979 | -80.15130 | 12 ft | 0 kts | 1° |
| 2026-05-03 23:36 | 26.06989 | -80.15130 | 12 ft | 5 kts | 0° |
| 2026-05-03 23:37 | 26.07083 | -80.15099 | 12 ft | 22 kts | 42° |
| 2026-05-03 23:37 | 26.07178 | -80.14955 | 11 ft | 22 kts | 76° |
| 2026-05-03 23:37 | 26.07204 | -80.14771 | 12 ft | 23 kts | 82° |
| 2026-05-03 23:37 | 26.07202 | -80.14682 | 12 ft | 12 kts | 117° |
| 2026-05-03 23:38 | 26.07158 | -80.14649 | 12 ft | 0 kts | 174° |